Time;durP1;ratioP1;P1;durP2;ratioP2;P2;SDS_P1;SDS_P2;PMS_P1;PMS_P2;Temp;Humidity;BMP_temperature;BMP_pressure;BME280_temperature;BME280_humidity;BME280_pressure;Samples;Min_cycle;Max_cycle;Signal;HPM_P1;HPM_P2
2023/03/25 00:00:16;;;;;;;2.73;1.00;;;24.40;99.90;;;;;;5053856;28;20292;-73
2023/03/25 00:02:45;;;;;;;3.93;1.20;;;24.50;99.90;;;;;;5055833;28;20562;-73
2023/03/25 00:05:14;;;;;;;2.80;1.13;;;24.60;99.90;;;;;;5051282;28;20529;-73
2023/03/25 00:07:42;;;;;;;1.97;0.97;;;24.70;99.90;;;;;;5051429;28;20214;-73
2023/03/25 00:10:12;;;;;;;6.40;1.27;;;24.80;99.90;;;;;;5050818;28;20199;-72
2023/03/25 00:12:41;;;;;;;2.97;0.87;;;24.80;99.90;;;;;;5050618;28;20538;-73
2023/03/25 00:15:10;;;;;;;5.70;1.10;;;24.80;99.90;;;;;;5057236;28;20653;-73
2023/03/25 00:17:38;;;;;;;2.37;0.63;;;24.80;99.90;;;;;;5049178;28;20192;-74
2023/03/25 00:20:10;;;;;;;3.73;1.10;;;24.90;99.90;;;;;;5048345;28;20220;-74
2023/03/25 00:22:43;;;;;;;7.23;1.07;;;25.00;99.90;;;;;;5052626;28;20185;-73
2023/03/25 00:25:17;;;;;;;4.20;1.07;;;25.00;99.90;;;;;;5052129;28;20220;-73
2023/03/25 00:27:47;;;;;;;4.10;0.80;;;24.90;99.90;;;;;;5052472;28;20667;-73
2023/03/25 00:30:15;;;;;;;3.03;1.00;;;24.80;99.90;;;;;;5043792;28;20231;-74
2023/03/25 00:32:51;;;;;;;6.07;1.00;;;24.60;99.90;;;;;;5052513;28;20177;-73
2023/03/25 00:35:24;;;;;;;7.23;1.30;;;24.50;99.90;;;;;;5052311;28;20212;-74
2023/03/25 00:37:56;;;;;;;4.77;1.50;;;24.60;99.90;;;;;;5056394;28;20634;-73
2023/03/25 00:40:24;;;;;;;4.00;1.43;;;25.00;99.90;;;;;;5049352;28;20678;-75
2023/03/25 00:42:52;;;;;;;2.33;0.93;;;25.30;99.90;;;;;;5052701;28;20173;-75
2023/03/25 00:45:19;;;;;;;6.33;1.30;;;25.50;99.90;;;;;;5054273;28;20208;-75
2023/03/25 00:47:47;;;;;;;6.80;1.30;;;25.50;99.90;;;;;;5055650;28;20177;-75
2023/03/25 00:50:15;;;;;;;5.40;0.97;;;25.50;99.90;;;;;;5055909;28;20641;-75
2023/03/25 00:52:42;;;;;;;3.40;1.17;;;25.60;99.90;;;;;;5055803;28;20176;-75
2023/03/25 00:55:09;;;;;;;6.17;1.00;;;25.70;99.90;;;;;;5055683;28;20177;-74
2023/03/25 00:57:37;;;;;;;4.40;1.37;;;25.50;99.90;;;;;;5055687;28;20181;-75
2023/03/25 01:00:07;;;;;;;4.93;1.10;;;25.60;99.90;;;;;;5055670;28;20338;-75
2023/03/25 01:02:34;;;;;;;3.50;1.30;;;25.80;99.90;;;;;;5056053;28;20279;-75
2023/03/25 01:05:03;;;;;;;1.33;0.87;;;26.30;99.90;;;;;;5055575;28;20181;-74
2023/03/25 01:07:30;;;;;;;4.83;1.10;;;26.80;99.90;;;;;;5055989;28;20191;-75
2023/03/25 01:10:02;;;;;;;2.13;0.80;;;27.80;99.90;;;;;;5055946;28;20234;-75
2023/03/25 01:12:29;;;;;;;1.70;0.80;;;28.30;99.90;;;;;;5055520;28;20215;-74
2023/03/25 01:14:57;;;;;;;3.70;0.90;;;28.10;99.90;;;;;;5053952;28;20180;-74
2023/03/25 01:17:24;;;;;;;2.70;0.87;;;27.80;99.90;;;;;;5055264;28;20223;-74
2023/03/25 01:19:51;;;;;;;3.37;0.80;;;27.80;99.90;;;;;;5055044;28;20584;-75
2023/03/25 01:22:19;;;;;;;2.87;1.17;;;27.60;99.90;;;;;;5054985;28;20638;-75
2023/03/25 01:24:47;;;;;;;2.80;0.90;;;27.60;99.90;;;;;;5053725;28;20176;-74
2023/03/25 01:27:14;;;;;;;1.47;0.70;;;27.70;99.90;;;;;;5054851;28;20196;-75
2023/03/25 01:29:41;;;;;;;5.93;1.07;;;27.30;99.90;;;;;;5055141;28;20173;-75
2023/03/25 01:32:09;;;;;;;2.10;0.87;;;27.60;99.90;;;;;;5055175;28;20192;-75
2023/03/25 01:34:37;;;;;;;6.20;1.00;;;27.80;99.90;;;;;;5055128;28;20646;-74
2023/03/25 01:37:05;;;;;;;3.80;0.80;;;27.90;99.90;;;;;;5054756;28;20189;-73
2023/03/25 01:39:33;;;;;;;4.73;1.00;;;27.60;99.90;;;;;;5059001;28;21047;-72
2023/03/25 01:42:00;;;;;;;3.77;0.80;;;27.40;99.90;;;;;;5050129;28;20212;-73
2023/03/25 01:44:28;;;;;;;3.30;1.07;;;27.20;99.90;;;;;;5072658;28;20641;-75
2023/03/25 01:46:57;;;;;;;3.80;1.00;;;26.90;99.90;;;;;;5057156;28;20670;-74
2023/03/25 01:49:39;;;;;;;3.07;1.13;;;26.90;99.90;;;;;;5063153;28;20268;-74
2023/03/25 01:52:11;;;;;;;5.50;0.80;;;26.60;99.90;;;;;;5034470;28;20263;-73
2023/03/25 01:54:43;;;;;;;3.57;0.90;;;26.20;99.90;;;;;;5041156;28;20203;-74
2023/03/25 01:57:13;;;;;;;4.73;0.93;;;26.00;99.90;;;;;;5032974;28;20197;-73
2023/03/25 01:59:42;;;;;;;2.70;1.10;;;25.70;99.90;;;;;;5033272;28;20205;-74
2023/03/25 02:02:14;;;;;;;3.10;1.23;;;25.50;99.90;;;;;;5031886;28;20606;-74
2023/03/25 02:05:16;;;;;;;3.80;1.37;;;25.40;99.90;;;;;;5033447;28;20189;-74
2023/03/25 02:07:46;;;;;;;4.27;1.37;;;25.40;99.90;;;;;;5053096;28;20195;-74
2023/03/25 02:10:16;;;;;;;4.00;1.20;;;25.50;99.90;;;;;;5063371;28;20176;-73
2023/03/25 02:12:45;;;;;;;8.73;1.30;;;25.60;99.90;;;;;;5072891;28;20187;-73
2023/03/25 02:15:15;;;;;;;4.87;1.00;;;25.70;99.90;;;;;;5072854;28;20225;-74
2023/03/25 02:18:16;;;;;;;4.13;1.13;;;26.00;99.90;;;;;;5071342;28;20672;-75
2023/03/25 02:21:25;;;;;;;4.67;1.20;;;26.00;99.90;;;;;;5050740;28;20212;-75
2023/03/25 02:24:14;;;;;;;4.07;1.30;;;26.30;99.90;;;;;;5031797;28;20189;-75
2023/03/25 02:27:14;;;;;;;1.93;0.90;;;26.50;99.90;;;;;;5048076;28;20288;-73
2023/03/25 02:30:26;;;;;;;2.80;1.10;;;26.40;99.90;;;;;;5051515;28;20191;-73
2023/03/25 02:33:02;;;;;;;8.90;1.20;;;26.40;99.90;;;;;;5066597;28;20261;-74
2023/03/25 02:35:48;;;;;;;4.33;0.90;;;26.10;99.90;;;;;;5071164;28;20186;-74
2023/03/25 02:38:42;;;;;;;2.67;1.10;;;25.80;99.90;;;;;;5072404;28;20179;-74
2023/03/25 02:41:46;;;;;;;3.37;1.10;;;25.70;99.90;;;;;;5044038;28;20220;-73
2023/03/25 02:44:22;;;;;;;4.80;1.20;;;25.50;99.90;;;;;;5032471;28;20188;-74
2023/03/25 02:46:55;;;;;;;5.70;1.17;;;25.50;99.90;;;;;;5031858;28;20173;-75
2023/03/25 02:49:35;;;;;;;4.27;1.30;;;25.50;99.90;;;;;;5063389;28;20703;-75
2023/03/25 02:52:15;;;;;;;4.93;1.50;;;25.40;99.90;;;;;;5051852;28;20180;-74
2023/03/25 02:54:44;;;;;;;4.27;1.33;;;25.30;99.90;;;;;;5050724;28;20191;-75
2023/03/25 02:57:17;;;;;;;2.60;0.90;;;25.30;99.90;;;;;;5045520;28;20178;-74
2023/03/25 02:59:47;;;;;;;4.87;1.40;;;25.20;99.90;;;;;;5032092;28;20316;-75
2023/03/25 03:02:18;;;;;;;4.20;0.90;;;25.20;99.90;;;;;;5070799;28;20641;-74
2023/03/25 03:04:46;;;;;;;5.37;1.10;;;25.30;99.90;;;;;;5072292;28;20183;-74
2023/03/25 03:07:21;;;;;;;5.90;1.30;;;25.20;99.90;;;;;;5071581;28;20183;-74
2023/03/25 03:10:07;;;;;;;3.13;1.13;;;25.20;99.90;;;;;;5047633;28;20198;-74
2023/03/25 03:13:08;;;;;;;3.30;0.90;;;25.20;99.90;;;;;;5072119;28;20176;-74
2023/03/25 03:16:05;;;;;;;5.13;1.13;;;25.30;99.90;;;;;;5071737;28;20230;-75
2023/03/25 03:19:14;;;;;;;3.90;1.00;;;25.40;99.90;;;;;;5069896;28;20176;-74
2023/03/25 03:21:50;;;;;;;4.10;1.17;;;25.20;99.90;;;;;;5061923;28;20293;-74
2023/03/25 03:24:32;;;;;;;3.50;1.13;;;25.10;99.90;;;;;;5071397;28;20171;-74
2023/03/25 03:27:13;;;;;;;4.03;1.10;;;25.00;99.90;;;;;;5071851;28;20184;-73
2023/03/25 03:30:03;;;;;;;3.53;1.40;;;24.90;99.90;;;;;;5070244;28;20183;-73
2023/03/25 03:32:52;;;;;;;3.70;1.00;;;25.00;99.90;;;;;;5056487;28;20184;-75
2023/03/25 03:35:41;;;;;;;2.77;1.10;;;24.80;99.90;;;;;;5051676;28;20184;-74
2023/03/25 03:38:13;;;;;;;1.87;1.00;;;24.90;99.90;;;;;;5067984;28;20219;-75
2023/03/25 03:40:46;;;;;;;3.60;1.17;;;24.80;99.90;;;;;;5051789;28;20241;-74
2023/03/25 03:43:24;;;;;;;6.97;1.57;;;24.80;99.90;;;;;;5054037;28;20650;-73
2023/03/25 03:45:57;;;;;;;5.87;1.50;;;24.90;99.90;;;;;;5068081;28;20183;-74
2023/03/25 03:48:56;;;;;;;4.50;1.27;;;24.80;99.90;;;;;;5071661;28;20183;-74
2023/03/25 03:51:28;;;;;;;3.60;1.30;;;24.70;99.90;;;;;;5067127;28;20265;-74
2023/03/25 03:54:27;;;;;;;3.97;1.70;;;24.70;99.90;;;;;;5066176;28;20231;-73
2023/03/25 03:57:01;;;;;;;4.30;1.37;;;24.70;99.90;;;;;;5048544;28;20225;-73
2023/03/25 03:59:35;;;;;;;3.30;1.13;;;24.50;99.90;;;;;;5065557;28;20226;-73
2023/03/25 04:02:13;;;;;;;4.27;1.30;;;24.40;99.90;;;;;;5069762;28;20205;-73
2023/03/25 04:04:41;;;;;;;2.80;1.30;;;24.40;99.90;;;;;;5054220;28;20652;-74
2023/03/25 04:07:18;;;;;;;3.10;1.20;;;24.20;99.90;;;;;;5031485;28;20217;-74
2023/03/25 04:10:05;;;;;;;4.17;1.00;;;24.20;99.90;;;;;;5049651;28;20195;-74
2023/03/25 04:12:37;;;;;;;7.27;1.10;;;24.20;99.90;;;;;;5051404;28;20250;-73
2023/03/25 04:15:07;;;;;;;3.20;1.30;;;24.20;99.90;;;;;;5063646;28;20538;-73
2023/03/25 04:17:34;;;;;;;6.03;1.53;;;24.20;99.90;;;;;;5053187;28;20232;-73
2023/03/25 04:20:07;;;;;;;7.43;1.10;;;24.20;99.90;;;;;;5053782;28;20216;-73
2023/03/25 04:22:44;;;;;;;3.33;1.53;;;24.10;99.90;;;;;;5068465;28;20734;-73
2023/03/25 04:25:12;;;;;;;3.60;1.10;;;24.20;99.90;;;;;;5063832;28;20640;-73
2023/03/25 04:27:40;;;;;;;2.53;1.10;;;24.20;99.90;;;;;;5054681;28;20223;-73
2023/03/25 04:30:08;;;;;;;3.23;1.20;;;24.10;99.90;;;;;;5072723;28;20523;-74
2023/03/25 04:32:36;;;;;;;3.63;1.30;;;24.10;99.90;;;;;;5074873;28;20660;-72
2023/03/25 04:35:04;;;;;;;3.70;1.23;;;24.10;99.90;;;;;;5067297;28;20524;-72
2023/03/25 04:37:32;;;;;;;4.13;1.10;;;24.20;99.90;;;;;;5054386;28;20203;-73
2023/03/25 04:40:00;;;;;;;4.97;1.10;;;24.20;99.90;;;;;;5054610;28;20217;-73
2023/03/25 04:42:31;;;;;;;3.67;1.13;;;24.10;99.90;;;;;;5053706;28;20195;-73
2023/03/25 04:45:01;;;;;;;4.60;1.20;;;23.90;99.90;;;;;;5054123;28;20190;-73
2023/03/25 04:47:29;;;;;;;5.53;1.00;;;23.70;99.90;;;;;;5053446;28;20229;-73
2023/03/25 04:49:56;;;;;;;3.50;1.10;;;23.30;99.90;;;;;;5054600;28;20535;-73
2023/03/25 04:52:24;;;;;;;3.83;1.20;;;23.10;99.90;;;;;;5056411;28;20614;-73
2023/03/25 04:54:51;;;;;;;2.80;1.03;;;23.10;99.90;;;;;;5043317;28;20205;-74
2023/03/25 04:57:19;;;;;;;2.63;0.97;;;23.00;99.90;;;;;;5051125;28;20683;-74
2023/03/25 04:59:46;;;;;;;6.10;1.30;;;23.10;99.90;;;;;;5053820;28;20243;-73
2023/03/25 05:02:14;;;;;;;5.07;1.37;;;23.20;99.90;;;;;;5052143;28;20192;-74
2023/03/25 05:04:41;;;;;;;3.87;0.97;;;23.30;99.90;;;;;;5054047;28;20657;-74
2023/03/25 05:07:09;;;;;;;10.57;1.40;;;23.40;99.90;;;;;;5052357;28;20188;-74
2023/03/25 05:09:36;;;;;;;5.30;0.90;;;23.40;99.90;;;;;;5041449;28;20185;-74
2023/03/25 05:12:04;;;;;;;6.57;1.20;;;23.40;99.90;;;;;;5054187;28;20195;-72
2023/03/25 05:14:31;;;;;;;1.20;0.70;;;23.40;99.90;;;;;;5073717;28;20221;-73
2023/03/25 05:16:59;;;;;;;3.07;1.07;;;23.50;99.90;;;;;;5073800;28;20223;-74
2023/03/25 05:19:27;;;;;;;2.60;1.00;;;23.70;99.90;;;;;;5072940;28;20203;-73
2023/03/25 05:21:55;;;;;;;3.43;1.00;;;23.90;99.90;;;;;;5072302;28;20223;-75
2023/03/25 05:24:22;;;;;;;1.80;0.80;;;23.80;99.90;;;;;;5073895;28;20200;-73
2023/03/25 05:26:49;;;;;;;1.70;1.03;;;23.90;99.90;;;;;;5061904;28;20584;-74
2023/03/25 05:29:18;;;;;;;5.27;1.73;;;23.90;99.90;;;;;;5068771;28;20191;-73
2023/03/25 05:31:47;;;;;;;7.73;2.13;;;23.80;99.90;;;;;;5057541;28;20286;-74
2023/03/25 05:34:15;;;;;;;4.17;1.73;;;23.60;99.90;;;;;;5053670;28;20322;-74
2023/03/25 05:36:43;;;;;;;7.37;2.47;;;23.30;99.90;;;;;;5053312;28;20200;-75
2023/03/25 05:39:10;;;;;;;8.30;2.47;;;23.20;99.90;;;;;;5053953;28;20735;-76
2023/03/25 05:41:38;;;;;;;5.37;2.03;;;23.30;99.90;;;;;;5073702;28;20179;-75
2023/03/25 05:44:13;;;;;;;7.90;2.10;;;23.20;99.90;;;;;;5073174;28;20183;-74
2023/03/25 05:46:41;;;;;;;6.60;2.57;;;23.10;99.90;;;;;;5073491;28;20644;-76
2023/03/25 05:49:08;;;;;;;7.60;3.30;;;23.00;99.90;;;;;;5058142;28;20195;-75
2023/03/25 05:51:38;;;;;;;6.83;2.50;;;22.90;99.90;;;;;;5073155;28;20644;-73
2023/03/25 05:54:12;;;;;;;6.93;2.40;;;22.80;99.90;;;;;;5073386;28;20181;-75
2023/03/25 05:56:41;;;;;;;4.33;1.97;;;22.80;99.90;;;;;;5073531;28;20744;-75
2023/03/25 05:59:09;;;;;;;9.50;2.93;;;22.80;99.90;;;;;;5071054;28;20191;-75
2023/03/25 06:01:36;;;;;;;4.70;2.17;;;22.70;99.90;;;;;;5073387;28;20188;-75
2023/03/25 06:04:08;;;;;;;6.53;2.13;;;22.60;99.90;;;;;;5071941;28;20183;-74
2023/03/25 06:06:36;;;;;;;3.80;1.83;;;22.50;99.90;;;;;;5072716;28;20249;-74
2023/03/25 06:09:03;;;;;;;3.37;1.67;;;22.40;99.90;;;;;;5036657;28;20217;-75
2023/03/25 06:11:36;;;;;;;5.40;1.80;;;22.40;99.90;;;;;;5033267;28;20615;-75
2023/03/25 06:17:26;;;;;;;4.37;2.43;;;22.40;99.90;;;;;;5050801;28;20243;-75
2023/03/25 06:19:55;;;;;;;4.23;1.30;;;22.40;99.90;;;;;;5052926;28;20252;-75
2023/03/25 06:22:23;;;;;;;4.83;1.30;;;22.30;99.90;;;;;;5052630;28;20203;-75
2023/03/25 06:24:51;;;;;;;5.10;1.50;;;22.30;99.90;;;;;;5052912;28;20189;-75
2023/03/25 06:27:20;;;;;;;5.80;1.30;;;22.20;99.90;;;;;;5046882;28;20203;-74
2023/03/25 06:29:48;;;;;;;4.90;1.50;;;22.10;99.90;;;;;;5038142;28;20188;-74
2023/03/25 06:32:16;;;;;;;7.37;1.50;;;21.90;99.90;;;;;;5052835;28;20192;-74
2023/03/25 06:34:44;;;;;;;6.43;1.33;;;21.60;99.90;;;;;;5054578;28;20176;-74
2023/03/25 06:37:12;;;;;;;4.77;1.37;;;21.60;99.90;;;;;;5052549;28;20182;-75
2023/03/25 06:39:40;;;;;;;5.70;1.60;;;21.50;99.90;;;;;;5040294;28;20272;-75
2023/03/25 06:42:08;;;;;;;6.23;1.27;;;21.40;99.90;;;;;;5037955;28;20677;-74
2023/03/25 06:44:36;;;;;;;5.73;1.37;;;21.10;99.90;;;;;;5047818;28;20604;-74
2023/03/25 06:47:05;;;;;;;4.53;1.17;;;21.00;99.90;;;;;;5041074;28;20181;-74
2023/03/25 06:49:33;;;;;;;5.20;1.27;;;20.80;99.90;;;;;;5037146;28;20311;-73
2023/03/25 06:52:01;;;;;;;6.07;1.20;;;20.70;99.90;;;;;;5040977;28;20214;-73
2023/03/25 06:54:28;;;;;;;2.43;1.17;;;20.70;99.90;;;;;;5051619;28;20290;-74
2023/03/25 06:56:56;;;;;;;7.30;1.47;;;20.60;99.90;;;;;;5060480;28;20271;-74
2023/03/25 06:59:24;;;;;;;5.30;1.33;;;20.50;99.90;;;;;;5033544;28;20210;-74
2023/03/25 07:01:52;;;;;;;5.90;1.30;;;20.50;99.90;;;;;;5032359;28;20184;-74
2023/03/25 07:04:19;;;;;;;2.60;1.20;;;20.40;99.90;;;;;;5032434;28;20183;-73
2023/03/25 07:06:47;;;;;;;4.47;1.20;;;20.40;99.90;;;;;;5031554;28;20204;-73
2023/03/25 07:09:15;;;;;;;4.37;1.40;;;20.40;99.90;;;;;;5055359;28;20214;-73
2023/03/25 07:11:44;;;;;;;7.23;1.90;;;20.40;99.90;;;;;;5070883;28;20179;-73
2023/03/25 07:14:12;;;;;;;8.80;1.67;;;20.40;99.90;;;;;;5071799;28;20172;-72
2023/03/25 07:16:40;;;;;;;6.77;1.87;;;20.40;99.90;;;;;;5065421;28;20183;-73
2023/03/25 07:19:07;;;;;;;10.10;1.60;;;20.40;99.90;;;;;;5065237;28;20231;-73
2023/03/25 07:21:35;;;;;;;6.13;1.53;;;20.30;99.90;;;;;;5031648;28;20183;-73
2023/03/25 07:24:03;;;;;;;5.80;1.30;;;20.30;99.90;;;;;;5032015;28;20578;-73
2023/03/25 07:26:31;;;;;;;4.97;1.63;;;20.30;99.90;;;;;;5059175;28;20286;-73
2023/03/25 07:28:59;;;;;;;3.03;1.20;;;20.20;99.90;;;;;;5071452;28;20175;-73
2023/03/25 07:31:27;;;;;;;5.30;1.30;;;20.20;99.90;;;;;;5055168;28;20191;-73
2023/03/25 07:33:55;;;;;;;5.93;1.67;;;20.20;99.90;;;;;;5064157;28;20575;-73
2023/03/25 07:36:24;;;;;;;6.40;1.80;;;20.20;99.90;;;;;;5045771;28;20184;-73
2023/03/25 07:38:52;;;;;;;6.57;1.70;;;20.20;99.90;;;;;;5064756;28;20603;-73
2023/03/25 07:41:23;;;;;;;6.37;1.43;;;20.10;99.90;;;;;;5053325;28;20228;-74
2023/03/25 07:43:51;;;;;;;5.53;1.30;;;20.10;99.90;;;;;;5041615;28;20243;-73
2023/03/25 07:46:18;;;;;;;7.37;1.53;;;20.20;99.90;;;;;;5051323;28;20637;-73
2023/03/25 07:48:46;;;;;;;3.80;1.20;;;20.20;99.90;;;;;;5051717;28;20186;-73
2023/03/25 07:51:14;;;;;;;7.73;1.50;;;20.20;99.90;;;;;;5051097;28;20178;-73
2023/03/25 07:53:44;;;;;;;8.20;1.50;;;20.20;99.90;;;;;;5050909;28;20179;-73
2023/03/25 07:56:12;;;;;;;10.27;1.63;;;20.20;99.90;;;;;;5055776;28;20277;-73
2023/03/25 07:58:40;;;;;;;4.53;1.20;;;20.20;99.90;;;;;;5072262;28;20252;-73
2023/03/25 08:01:08;;;;;;;7.20;2.07;;;20.20;99.90;;;;;;5063687;28;20316;-74
2023/03/25 08:03:38;;;;;;;8.00;2.37;;;20.20;99.90;;;;;;5070471;28;20196;-73
2023/03/25 08:06:07;;;;;;;7.97;1.60;;;20.20;99.90;;;;;;5075154;28;20244;-73
2023/03/25 08:08:35;;;;;;;10.77;2.00;;;20.30;99.90;;;;;;5075441;28;20233;-73
2023/03/25 08:11:03;;;;;;;8.30;1.80;;;20.30;99.90;;;;;;5071178;28;20199;-73
2023/03/25 08:13:31;;;;;;;7.53;2.20;;;20.30;99.90;;;;;;5063098;28;20612;-74
2023/03/25 08:15:59;;;;;;;8.13;1.97;;;20.30;99.90;;;;;;5074064;28;20192;-73
2023/03/25 08:18:27;;;;;;;6.70;2.03;;;20.20;99.90;;;;;;5069506;28;20236;-73
2023/03/25 08:20:55;;;;;;;6.23;1.57;;;20.30;99.90;;;;;;5041055;28;20265;-73
2023/03/25 08:23:25;;;;;;;5.83;2.20;;;20.20;99.90;;;;;;5048243;28;20255;-73
2023/03/25 08:25:53;;;;;;;7.53;2.00;;;20.20;99.90;;;;;;5035314;28;20264;-73
2023/03/25 08:28:22;;;;;;;3.90;1.80;;;20.20;99.90;;;;;;5046494;28;20232;-73
2023/03/25 08:30:57;;;;;;;6.53;2.07;;;20.20;99.90;;;;;;5064636;28;20636;-74
2023/03/25 08:33:33;;;;;;;6.57;2.23;;;20.30;99.90;;;;;;5073747;28;20186;-74
2023/03/25 08:36:01;;;;;;;7.57;2.07;;;20.30;99.90;;;;;;5071967;28;20203;-73
2023/03/25 08:38:30;;;;;;;4.27;2.00;;;20.40;99.90;;;;;;5074756;28;20177;-73
2023/03/25 08:41:01;;;;;;;5.97;2.70;;;20.40;99.90;;;;;;5072762;28;20322;-73
2023/03/25 08:43:29;;;;;;;10.17;2.33;;;20.40;99.90;;;;;;5074288;28;20191;-73
2023/03/25 08:45:57;;;;;;;9.60;2.43;;;20.40;99.90;;;;;;5074667;28;20176;-74
2023/03/25 08:48:25;;;;;;;11.23;2.87;;;20.40;99.90;;;;;;5055951;28;20212;-73
2023/03/25 08:50:52;;;;;;;8.27;2.37;;;20.40;99.90;;;;;;5054239;28;20193;-74
2023/03/25 08:53:20;;;;;;;11.77;2.73;;;20.40;99.90;;;;;;5054393;28;20516;-73
2023/03/25 08:55:54;;;;;;;4.10;1.97;;;20.40;99.90;;;;;;5054604;28;20176;-73
2023/03/25 08:58:22;;;;;;;7.87;3.20;;;20.40;99.90;;;;;;5062686;28;20180;-74
2023/03/25 09:00:54;;;;;;;12.00;3.70;;;20.40;99.90;;;;;;5074341;28;20218;-73
2023/03/25 09:03:28;;;;;;;8.47;3.43;;;20.30;99.90;;;;;;5074221;28;20231;-74
2023/03/25 09:05:56;;;;;;;9.37;2.47;;;20.30;99.90;;;;;;5067239;28;20261;-73
2023/03/25 09:08:24;;;;;;;6.57;2.87;;;20.30;99.90;;;;;;5034583;28;20224;-73
2023/03/25 09:10:54;;;;;;;9.93;2.93;;;20.30;99.90;;;;;;5033904;28;20181;-73
2023/03/25 09:13:21;;;;;;;6.70;2.70;;;20.30;99.90;;;;;;5034278;28;20192;-73
2023/03/25 09:15:49;;;;;;;8.17;3.17;;;20.30;99.90;;;;;;5034181;28;20647;-73
2023/03/25 09:18:17;;;;;;;11.40;2.80;;;20.30;99.90;;;;;;5033384;28;20229;-73
2023/03/25 09:20:47;;;;;;;11.93;2.90;;;20.30;99.90;;;;;;5033948;28;20217;-73
2023/03/25 09:23:16;;;;;;;11.33;2.37;;;20.30;99.90;;;;;;5033980;28;20525;-73
2023/03/25 09:25:45;;;;;;;7.77;2.47;;;20.20;99.90;;;;;;5033615;28;20524;-73
2023/03/25 09:28:13;;;;;;;6.73;2.13;;;20.20;99.90;;;;;;5033875;28;20185;-73
2023/03/25 09:30:41;;;;;;;6.57;2.20;;;20.20;99.90;;;;;;5034039;28;20187;-73
2023/03/25 09:33:08;;;;;;;11.00;2.23;;;20.30;99.90;;;;;;5033505;28;20573;-73
2023/03/25 09:35:36;;;;;;;6.13;2.17;;;20.30;99.90;;;;;;5033724;28;20254;-73
2023/03/25 09:38:07;;;;;;;7.90;2.30;;;20.30;99.90;;;;;;5033626;28;20188;-73
2023/03/25 09:40:35;;;;;;;10.23;2.47;;;20.30;99.90;;;;;;5033265;28;20220;-73
2023/03/25 09:43:18;;;;;;;8.63;2.10;;;20.30;99.90;;;;;;5033771;28;20197;-73
2023/03/25 09:45:47;;;;;;;6.67;1.90;;;20.40;99.90;;;;;;5033730;28;20279;-73
2023/03/25 09:48:21;;;;;;;8.17;2.03;;;20.40;99.90;;;;;;5033054;28;20188;-73
2023/03/25 09:50:52;;;;;;;9.20;2.07;;;20.30;99.90;;;;;;5033481;28;20173;-73
2023/03/25 09:53:38;;;;;;;11.83;2.60;;;20.40;99.90;;;;;;5033440;28;20181;-73
2023/03/25 09:56:11;;;;;;;6.57;1.90;;;20.30;99.90;;;;;;5033108;28;20177;-73
2023/03/25 09:58:54;;;;;;;7.17;2.30;;;20.30;99.90;;;;;;5033349;28;20551;-73
2023/03/25 10:01:44;;;;;;;6.17;1.70;;;20.30;99.90;;;;;;5033160;28;20720;-73
2023/03/25 10:04:31;;;;;;;5.13;1.90;;;20.30;99.90;;;;;;5032990;28;20170;-73
2023/03/25 10:07:05;;;;;;;7.60;2.10;;;20.20;99.90;;;;;;5065316;28;20181;-72
2023/03/25 10:09:45;;;;;;;5.17;2.00;;;20.30;99.90;;;;;;5033213;28;20239;-73
2023/03/25 10:12:22;;;;;;;5.70;2.30;;;20.30;99.90;;;;;;5032928;28;20273;-73
2023/03/25 10:15:02;;;;;;;7.90;2.00;;;20.30;99.90;;;;;;5033517;28;20196;-73
2023/03/25 10:18:00;;;;;;;11.67;2.27;;;20.30;99.90;;;;;;5031972;28;20184;-73
2023/03/25 10:20:45;;;;;;;6.93;2.60;;;20.30;99.90;;;;;;5033027;28;20227;-74
2023/03/25 10:23:36;;;;;;;9.50;2.47;;;20.20;99.90;;;;;;5033035;28;20300;-73
2023/03/25 10:26:12;;;;;;;9.60;2.40;;;20.20;99.90;;;;;;5032359;28;20247;-74
2023/03/25 10:28:48;;;;;;;5.50;2.40;;;20.20;99.90;;;;;;5032945;28;20661;-74
2023/03/25 10:31:20;;;;;;;11.73;2.10;;;20.20;99.90;;;;;;5033173;28;20188;-74
2023/03/25 10:33:56;;;;;;;2.20;1.40;;;20.20;99.90;;;;;;5032368;28;20181;-74
2023/03/25 10:36:50;;;;;;;6.97;1.90;;;20.10;99.90;;;;;;5064687;28;20271;-74
2023/03/25 10:39:20;;;;;;;5.23;2.00;;;20.10;99.90;;;;;;5032468;28;20201;-74
2023/03/25 10:42:02;;;;;;;5.80;1.50;;;20.20;99.90;;;;;;5032305;28;20549;-74
2023/03/25 10:44:30;;;;;;;5.87;1.80;;;20.20;99.90;;;;;;5032482;28;20177;-73
2023/03/25 10:47:12;;;;;;;5.57;1.87;;;20.10;99.90;;;;;;5032427;28;20273;-74
2023/03/25 10:49:41;;;;;;;7.77;1.67;;;20.10;99.90;;;;;;5031304;28;20597;-73
2023/03/25 10:52:10;;;;;;;5.47;1.50;;;20.20;99.90;;;;;;5032651;28;20662;-73
2023/03/25 10:54:44;;;;;;;8.33;1.87;;;20.20;99.90;;;;;;5031930;28;20177;-74
2023/03/25 10:57:35;;;;;;;9.00;1.90;;;20.20;99.90;;;;;;5032307;28;20576;-74
2023/03/25 11:00:17;;;;;;;10.23;2.37;;;20.30;99.90;;;;;;5032323;28;20216;-73
2023/03/25 11:02:46;;;;;;;11.93;2.10;;;20.20;99.90;;;;;;5031910;28;20174;-75
2023/03/25 11:05:19;;;;;;;4.30;1.80;;;20.20;99.90;;;;;;5047590;28;20732;-75
2023/03/25 11:08:09;;;;;;;3.10;1.43;;;20.20;99.90;;;;;;5042200;28;20175;-74
2023/03/25 11:10:37;;;;;;;9.10;2.07;;;20.20;99.90;;;;;;5053137;28;20521;-73
2023/03/25 11:13:11;;;;;;;11.83;1.87;;;20.30;99.90;;;;;;5053126;28;20512;-74
2023/03/25 11:15:41;;;;;;;8.73;1.90;;;20.30;99.90;;;;;;5053428;28;20171;-73
2023/03/25 11:18:43;;;;;;;4.73;1.70;;;20.30;99.90;;;;;;5052698;28;20652;-73
2023/03/25 11:21:13;;;;;;;8.50;1.60;;;20.30;99.90;;;;;;5052352;28;20242;-73
2023/03/25 11:23:45;;;;;;;5.77;1.40;;;20.30;99.90;;;;;;5053604;28;20641;-74
2023/03/25 11:26:20;;;;;;;7.67;1.60;;;20.20;99.90;;;;;;5053205;28;20180;-73
2023/03/25 11:29:00;;;;;;;3.23;1.60;;;20.20;99.90;;;;;;5052642;28;20182;-73
2023/03/25 11:31:33;;;;;;;5.20;1.63;;;20.30;99.90;;;;;;5052030;28;20266;-73
2023/03/25 11:34:06;;;;;;;4.17;1.53;;;20.30;99.90;;;;;;5038192;28;20671;-73
2023/03/25 11:36:38;;;;;;;6.03;1.37;;;20.30;99.90;;;;;;5033282;28;20181;-73
2023/03/25 11:39:23;;;;;;;3.23;1.30;;;20.20;99.90;;;;;;5070742;28;20192;-73
2023/03/25 11:41:52;;;;;;;2.03;1.20;;;20.20;99.90;;;;;;5047442;28;20284;-73
2023/03/25 11:44:29;;;;;;;7.53;1.57;;;20.20;99.90;;;;;;5047141;28;20176;-73
2023/03/25 11:47:02;;;;;;;5.40;1.60;;;20.20;99.90;;;;;;5050382;28;20194;-73
2023/03/25 11:49:36;;;;;;;6.50;2.00;;;20.20;99.90;;;;;;5033232;28;20192;-73
2023/03/25 11:52:05;;;;;;;3.97;1.20;;;20.20;99.90;;;;;;5074647;28;20237;-73
2023/03/25 11:54:36;;;;;;;5.63;1.40;;;20.20;99.90;;;;;;5073034;28;20744;-74
2023/03/25 11:57:10;;;;;;;2.97;1.23;;;20.10;99.90;;;;;;5037132;28;20272;-71
2023/03/25 11:59:44;;;;;;;6.13;1.50;;;20.20;99.90;;;;;;5032930;28;20212;-72
2023/03/25 12:02:36;;;;;;;5.77;1.30;;;20.10;99.90;;;;;;5033409;28;20238;-72
2023/03/25 12:05:13;;;;;;;5.20;1.40;;;20.10;99.90;;;;;;5034667;28;20181;-72
2023/03/25 12:07:48;;;;;;;5.63;1.60;;;20.00;99.90;;;;;;5060246;28;20651;-72
2023/03/25 12:10:31;;;;;;;6.33;1.37;;;20.00;99.90;;;;;;5059201;28;20199;-72
2023/03/25 12:13:02;;;;;;;4.63;1.40;;;20.00;99.90;;;;;;5072559;28;20176;-72
2023/03/25 12:16:01;;;;;;;5.70;1.40;;;20.00;99.90;;;;;;5062200;28;20182;-72
2023/03/25 12:18:47;;;;;;;4.07;1.53;;;20.00;99.90;;;;;;5054908;28;20259;-72
2023/03/25 12:22:02;;;;;;;7.40;2.17;;;19.90;99.90;;;;;;5072621;28;20214;-72
2023/03/25 12:24:30;;;;;;;6.33;1.50;;;19.90;99.90;;;;;;5056073;28;20565;-72
2023/03/25 12:27:25;;;;;;;3.23;1.40;;;19.90;99.90;;;;;;5052568;28;20493;-72
2023/03/25 12:30:24;;;;;;;5.30;1.90;;;20.00;99.90;;;;;;5033022;28;20177;-72
2023/03/25 12:33:23;;;;;;;6.00;1.33;;;19.90;99.90;;;;;;5032674;28;20186;-72
2023/03/25 12:36:06;;;;;;;4.03;1.80;;;19.90;99.90;;;;;;5032563;28;20306;-72
2023/03/25 12:39:05;;;;;;;5.60;1.70;;;19.90;99.90;;;;;;5056199;28;20186;-71
2023/03/25 12:41:50;;;;;;;5.60;2.07;;;19.90;99.90;;;;;;5075939;28;20194;-72
2023/03/25 12:45:02;;;;;;;7.43;2.30;;;20.00;99.90;;;;;;5075060;28;20179;-72
2023/03/25 12:47:42;;;;;;;4.60;2.00;;;19.90;99.90;;;;;;5043550;28;20193;-71
2023/03/25 12:50:29;;;;;;;5.77;2.00;;;19.90;99.90;;;;;;5036253;28;20215;-72
2023/03/25 12:53:34;;;;;;;4.73;2.03;;;19.90;99.90;;;;;;5036153;28;20184;-72
2023/03/25 12:56:43;;;;;;;8.10;2.30;;;19.80;99.90;;;;;;5035694;28;20724;-72
2023/03/25 12:59:13;;;;;;;5.07;1.80;;;19.80;99.90;;;;;;5042067;28;20235;-73
2023/03/25 13:01:48;;;;;;;7.70;1.80;;;19.80;99.90;;;;;;5051013;28;20189;-72
2023/03/25 13:04:51;;;;;;;8.47;2.00;;;19.70;99.90;;;;;;5061201;28;20184;-73
2023/03/25 13:07:27;;;;;;;4.43;2.10;;;19.70;99.90;;;;;;5075665;28;20176;-72
2023/03/25 13:10:07;;;;;;;4.43;1.70;;;19.70;99.90;;;;;;5075730;28;20175;-73
2023/03/25 13:12:50;;;;;;;9.83;2.30;;;19.70;99.90;;;;;;5076055;28;20183;-73
2023/03/25 13:15:27;;;;;;;6.77;2.30;;;19.60;99.90;;;;;;5073085;28;20206;-73
2023/03/25 13:18:10;;;;;;;5.27;1.90;;;19.60;99.90;;;;;;5075254;28;20334;-73
2023/03/25 13:21:02;;;;;;;4.60;1.67;;;19.50;99.90;;;;;;5075379;28;20607;-74
2023/03/25 13:23:33;;;;;;;4.57;1.50;;;19.50;99.90;;;;;;5064156;28;20180;-73